sensor_id;sensor_type;location;lat;lon;timestamp;pressure;altitude;pressure_sealevel;temperature;humidity
69535;BME280;56754;51.568;5.048;2023-11-19T00:01:09;100848.72;;;13.18;80.14
69535;BME280;56754;51.568;5.048;2023-11-19T00:03:34;100844.94;;;13.19;80.04
69535;BME280;56754;51.568;5.048;2023-11-19T00:05:59;100843.03;;;13.20;79.58
69535;BME280;56754;51.568;5.048;2023-11-19T00:08:25;100827.72;;;13.20;80.05
69535;BME280;56754;51.568;5.048;2023-11-19T00:10:50;100824.25;;;13.20;79.70
69535;BME280;56754;51.568;5.048;2023-11-19T00:13:15;100811.59;;;13.20;79.56
69535;BME280;56754;51.568;5.048;2023-11-19T00:15:41;100802.44;;;13.21;79.03
69535;BME280;56754;51.568;5.048;2023-11-19T00:18:06;100803.22;;;13.22;78.82
69535;BME280;56754;51.568;5.048;2023-11-19T00:20:31;100800.53;;;13.22;79.60
69535;BME280;56754;51.568;5.048;2023-11-19T00:22:57;100798.31;;;13.24;80.28
69535;BME280;56754;51.568;5.048;2023-11-19T00:25:22;100795.63;;;13.24;80.95
69535;BME280;56754;51.568;5.048;2023-11-19T00:27:47;100783.34;;;13.23;81.29
69535;BME280;56754;51.568;5.048;2023-11-19T00:30:13;100795.97;;;13.23;80.81
69535;BME280;56754;51.568;5.048;2023-11-19T00:32:39;100793.28;;;13.23;80.81
69535;BME280;56754;51.568;5.048;2023-11-19T00:35:05;100795.97;;;13.23;80.82
69535;BME280;56754;51.568;5.048;2023-11-19T00:37:30;100799.44;;;13.23;80.52
69535;BME280;56754;51.568;5.048;2023-11-19T00:39:55;100806.38;;;13.24;80.43
69535;BME280;56754;51.568;5.048;2023-11-19T00:42:21;100816.03;;;13.25;80.28
69535;BME280;56754;51.568;5.048;2023-11-19T00:44:46;100816.03;;;13.25;80.01
69535;BME280;56754;51.568;5.048;2023-11-19T00:47:11;100816.03;;;13.25;78.95
69535;BME280;56754;51.568;5.048;2023-11-19T00:49:37;100810.34;;;13.27;79.54
69535;BME280;56754;51.568;5.048;2023-11-19T00:52:02;100806.53;;;13.28;80.72
69535;BME280;56754;51.568;5.048;2023-11-19T00:54:27;100811.88;;;13.28;79.93
69535;BME280;56754;51.568;5.048;2023-11-19T00:56:53;100819.16;;;13.27;80.48
69535;BME280;56754;51.568;5.048;2023-11-19T00:59:19;100819.94;;;13.28;80.11
69535;BME280;56754;51.568;5.048;2023-11-19T01:01:44;100820.75;;;13.28;80.97
69535;BME280;56754;51.568;5.048;2023-11-19T01:04:10;100823.75;;;13.27;80.35
69535;BME280;56754;51.568;5.048;2023-11-19T01:06:35;100814.91;;;13.26;80.27
69535;BME280;56754;51.568;5.048;2023-11-19T01:09:00;100815.69;;;13.27;80.06
69535;BME280;56754;51.568;5.048;2023-11-19T01:11:26;100807.34;;;13.28;81.11
69535;BME280;56754;51.568;5.048;2023-11-19T01:13:51;100788.84;;;13.27;79.57
69535;BME280;56754;51.568;5.048;2023-11-19T01:16:18;100795.00;;;13.27;79.70
69535;BME280;56754;51.568;5.048;2023-11-19T01:18:43;100770.53;;;13.29;79.72
69535;BME280;56754;51.568;5.048;2023-11-19T01:21:08;100771.31;;;13.29;80.00
69535;BME280;56754;51.568;5.048;2023-11-19T01:23:34;100770.53;;;13.29;80.07
69535;BME280;56754;51.568;5.048;2023-11-19T01:26:00;100771.31;;;13.29;80.18
69535;BME280;56754;51.568;5.048;2023-11-19T01:28:25;100782.06;;;13.29;80.38
69535;BME280;56754;51.568;5.048;2023-11-19T01:30:51;100787.41;;;13.29;80.30
69535;BME280;56754;51.568;5.048;2023-11-19T01:33:16;100794.69;;;13.29;80.55
69535;BME280;56754;51.568;5.048;2023-11-19T01:35:42;100802.75;;;13.29;80.84
69535;BME280;56754;51.568;5.048;2023-11-19T01:38:08;100812.69;;;13.28;79.95
69535;BME280;56754;51.568;5.048;2023-11-19T01:40:34;100808.13;;;13.29;79.92
69535;BME280;56754;51.568;5.048;2023-11-19T01:42:59;100800.84;;;13.29;80.22
69535;BME280;56754;51.568;5.048;2023-11-19T01:45:30;100799.72;;;13.30;80.09
69535;BME280;56754;51.568;5.048;2023-11-19T01:47:55;100797.81;;;13.31;80.45
69535;BME280;56754;51.568;5.048;2023-11-19T01:50:22;100798.94;;;13.30;79.69
69535;BME280;56754;51.568;5.048;2023-11-19T01:52:48;100800.50;;;13.31;80.24
69535;BME280;56754;51.568;5.048;2023-11-19T01:55:14;100803.19;;;13.31;79.72
69535;BME280;56754;51.568;5.048;2023-11-19T01:57:39;100812.34;;;13.30;79.25
69535;BME280;56754;51.568;5.048;2023-11-19T02:00:06;100798.16;;;13.29;79.82
69535;BME280;56754;51.568;5.048;2023-11-19T02:02:31;100794.34;;;13.30;79.63
69535;BME280;56754;51.568;5.048;2023-11-19T02:04:57;100788.97;;;13.30;79.58
69535;BME280;56754;51.568;5.048;2023-11-19T02:07:24;100787.41;;;13.29;79.25
69535;BME280;56754;51.568;5.048;2023-11-19T02:09:49;100788.19;;;13.30;79.87
69535;BME280;56754;51.568;5.048;2023-11-19T02:12:15;100796.25;;;13.30;80.03
69535;BME280;56754;51.568;5.048;2023-11-19T02:14:40;100790.88;;;13.30;80.10
69535;BME280;56754;51.568;5.048;2023-11-19T02:17:05;100790.88;;;13.30;78.81
69535;BME280;56754;51.568;5.048;2023-11-19T02:19:31;100788.97;;;13.30;79.79
69535;BME280;56754;51.568;5.048;2023-11-19T02:21:56;100790.09;;;13.29;80.38
69535;BME280;56754;51.568;5.048;2023-11-19T02:24:22;100774.31;;;13.28;80.45
69535;BME280;56754;51.568;5.048;2023-11-19T02:27:08;100785.38;;;13.26;80.74
69535;BME280;56754;51.568;5.048;2023-11-19T02:29:35;100791.53;;;13.27;79.94
69535;BME280;56754;51.568;5.048;2023-11-19T02:32:01;100791.88;;;13.25;80.47
69535;BME280;56754;51.568;5.048;2023-11-19T02:34:27;100783.00;;;13.25;79.93
69535;BME280;56754;51.568;5.048;2023-11-19T02:36:53;100789.47;;;13.24;79.52
69535;BME280;56754;51.568;5.048;2023-11-19T02:39:18;100785.69;;;13.25;79.60
69535;BME280;56754;51.568;5.048;2023-11-19T02:41:43;100783.34;;;13.23;79.56
69535;BME280;56754;51.568;5.048;2023-11-19T02:44:08;100775.28;;;13.23;79.73
69535;BME280;56754;51.568;5.048;2023-11-19T02:46:34;100782.56;;;13.23;79.24
69535;BME280;56754;51.568;5.048;2023-11-19T02:48:59;100779.88;;;13.23;79.27
69535;BME280;56754;51.568;5.048;2023-11-19T02:51:24;100781.75;;;13.22;79.89
69535;BME280;56754;51.568;5.048;2023-11-19T02:53:50;100787.13;;;13.22;79.79
69535;BME280;56754;51.568;5.048;2023-11-19T02:56:15;100779.06;;;13.22;79.27
69535;BME280;56754;51.568;5.048;2023-11-19T02:58:43;100786.69;;;13.20;79.09
69535;BME280;56754;51.568;5.048;2023-11-19T03:01:08;100784.00;;;13.20;79.21
69535;BME280;56754;51.568;5.048;2023-11-19T03:03:33;100783.22;;;13.19;78.78
69535;BME280;56754;51.568;5.048;2023-11-19T03:05:59;100781.63;;;13.18;78.41
69535;BME280;56754;51.568;5.048;2023-11-19T03:08:24;100776.59;;;13.17;78.95
69535;BME280;56754;51.568;5.048;2023-11-19T03:10:49;100792.69;;;13.17;78.39
69535;BME280;56754;51.568;5.048;2023-11-19T03:13:15;100797.28;;;13.16;78.61
69535;BME280;56754;51.568;5.048;2023-11-19T03:15:40;100787.97;;;13.14;78.70
69535;BME280;56754;51.568;5.048;2023-11-19T03:18:06;100776.78;;;13.12;78.42
69535;BME280;56754;51.568;5.048;2023-11-19T03:20:32;100782.50;;;13.10;78.53
69535;BME280;56754;51.568;5.048;2023-11-19T03:22:57;100793.53;;;13.09;78.38
69535;BME280;56754;51.568;5.048;2023-11-19T03:25:22;100789.59;;;13.06;78.32
69535;BME280;56754;51.568;5.048;2023-11-19T03:27:49;100790.25;;;13.03;78.30
69535;BME280;56754;51.568;5.048;2023-11-19T03:30:15;100779.88;;;13.02;78.10
69535;BME280;56754;51.568;5.048;2023-11-19T03:32:40;100775.16;;;12.98;78.12
69535;BME280;56754;51.568;5.048;2023-11-19T03:35:06;100771.22;;;12.96;77.89
69535;BME280;56754;51.568;5.048;2023-11-19T03:37:31;100757.34;;;12.94;78.32
69535;BME280;56754;51.568;5.048;2023-11-19T03:39:57;100775.34;;;12.93;78.20
69535;BME280;56754;51.568;5.048;2023-11-19T03:42:22;100769.03;;;12.89;77.24
69535;BME280;56754;51.568;5.048;2023-11-19T03:44:47;100779.31;;;12.87;77.92
69535;BME280;56754;51.568;5.048;2023-11-19T03:47:12;100783.44;;;12.85;78.03
69535;BME280;56754;51.568;5.048;2023-11-19T03:49:38;100778.06;;;12.85;77.67
69535;BME280;56754;51.568;5.048;2023-11-19T03:52:03;100779.50;;;12.82;76.94
69535;BME280;56754;51.568;5.048;2023-11-19T03:54:28;100776.03;;;12.82;78.01
69535;BME280;56754;51.568;5.048;2023-11-19T03:56:54;100774.44;;;12.81;77.37
69535;BME280;56754;51.568;5.048;2023-11-19T03:59:19;100784.75;;;12.79;76.95
69535;BME280;56754;51.568;5.048;2023-11-19T04:01:44;100782.38;;;12.77;77.41
69535;BME280;56754;51.568;5.048;2023-11-19T04:04:09;100783.50;;;12.76;77.38
69535;BME280;56754;51.568;5.048;2023-11-19T04:06:35;100795.34;;;12.75;77.85
69535;BME280;56754;51.568;5.048;2023-11-19T04:09:00;100791.84;;;12.74;77.42
69535;BME280;56754;51.568;5.048;2023-11-19T04:11:25;100793.31;;;12.72;77.05
69535;BME280;56754;51.568;5.048;2023-11-19T04:13:50;100816.63;;;12.71;77.42
69535;BME280;56754;51.568;5.048;2023-11-19T04:16:16;100803.56;;;12.70;76.75
69535;BME280;56754;51.568;5.048;2023-11-19T04:18:41;100811.59;;;12.70;77.19
69535;BME280;56754;51.568;5.048;2023-11-19T04:21:07;100794.25;;;12.67;77.08
69535;BME280;56754;51.568;5.048;2023-11-19T04:23:32;100791.88;;;12.66;77.25
69535;BME280;56754;51.568;5.048;2023-11-19T04:25:58;100789.22;;;12.66;76.72
69535;BME280;56754;51.568;5.048;2023-11-19T04:28:23;100792.22;;;12.64;77.09
69535;BME280;56754;51.568;5.048;2023-11-19T04:30:48;100796.47;;;12.65;77.18
69535;BME280;56754;51.568;5.048;2023-11-19T04:33:13;100801.06;;;12.65;77.03
69535;BME280;56754;51.568;5.048;2023-11-19T04:35:39;100784.19;;;12.64;77.17
69535;BME280;56754;51.568;5.048;2023-11-19T04:38:04;100798.72;;;12.63;77.29
69535;BME280;56754;51.568;5.048;2023-11-19T04:40:29;100792.53;;;12.63;77.04
69535;BME280;56754;51.568;5.048;2023-11-19T04:42:55;100805.94;;;12.63;77.04
69535;BME280;56754;51.568;5.048;2023-11-19T04:45:20;100799.03;;;12.62;76.70
69535;BME280;56754;51.568;5.048;2023-11-19T04:47:45;100806.28;;;12.61;76.78
69535;BME280;56754;51.568;5.048;2023-11-19T04:50:10;100806.28;;;12.61;77.35
69535;BME280;56754;51.568;5.048;2023-11-19T04:52:39;100803.91;;;12.60;76.77
69535;BME280;56754;51.568;5.048;2023-11-19T04:55:04;100806.59;;;12.60;76.77
69535;BME280;56754;51.568;5.048;2023-11-19T04:57:29;100813.84;;;12.59;76.99
69535;BME280;56754;51.568;5.048;2023-11-19T04:59:55;100811.16;;;12.59;76.57
69535;BME280;56754;51.568;5.048;2023-11-19T05:02:20;100816.88;;;12.58;77.08
69535;BME280;56754;51.568;5.048;2023-11-19T05:04:45;100816.88;;;12.58;77.03
69535;BME280;56754;51.568;5.048;2023-11-19T05:07:10;100808.06;;;12.57;76.98
69535;BME280;56754;51.568;5.048;2023-11-19T05:09:36;100800.78;;;12.58;76.81
69535;BME280;56754;51.568;5.048;2023-11-19T05:12:01;100812.28;;;12.58;76.83
69535;BME280;56754;51.568;5.048;2023-11-19T05:14:26;100814.19;;;12.58;76.56
69535;BME280;56754;51.568;5.048;2023-11-19T05:16:52;100805.38;;;12.57;76.54
69535;BME280;56754;51.568;5.048;2023-11-19T05:19:17;100807.25;;;12.57;76.76
69535;BME280;56754;51.568;5.048;2023-11-19T05:21:42;100803.00;;;12.56;76.43
69535;BME280;56754;51.568;5.048;2023-11-19T05:24:08;100801.44;;;12.55;76.50
69535;BME280;56754;51.568;5.048;2023-11-19T05:26:33;100810.56;;;12.53;76.42
69535;BME280;56754;51.568;5.048;2023-11-19T05:28:58;100809.47;;;12.55;76.52
69535;BME280;56754;51.568;5.048;2023-11-19T05:31:24;100815.63;;;12.55;76.41
69535;BME280;56754;51.568;5.048;2023-11-19T05:33:49;100823.19;;;12.53;76.31
69535;BME280;56754;51.568;5.048;2023-11-19T05:36:15;100822.09;;;12.54;76.44
69535;BME280;56754;51.568;5.048;2023-11-19T05:38:40;100830.44;;;12.52;76.37
69535;BME280;56754;51.568;5.048;2023-11-19T05:41:06;100820.84;;;12.51;76.09
69535;BME280;56754;51.568;5.048;2023-11-19T05:43:32;100823.19;;;12.53;76.19
69535;BME280;56754;51.568;5.048;2023-11-19T05:45:57;100820.50;;;12.53;76.19
69535;BME280;56754;51.568;5.048;2023-11-19T05:48:23;100835.03;;;12.52;76.18
69535;BME280;56754;51.568;5.048;2023-11-19T05:50:48;100828.06;;;12.51;76.03
69535;BME280;56754;51.568;5.048;2023-11-19T05:53:14;100828.06;;;12.51;76.26
69535;BME280;56754;51.568;5.048;2023-11-19T05:55:39;100834.56;;;12.50;76.25
69535;BME280;56754;51.568;5.048;2023-11-19T05:58:04;100829.53;;;12.48;76.20
69535;BME280;56754;51.568;5.048;2023-11-19T06:00:30;100838.78;;;12.51;76.35
69535;BME280;56754;51.568;5.048;2023-11-19T06:02:55;100837.56;;;12.48;76.16
69535;BME280;56754;51.568;5.048;2023-11-19T06:05:20;100834.56;;;12.50;76.14
69535;BME280;56754;51.568;5.048;2023-11-19T06:07:45;100830.63;;;12.47;76.01
69535;BME280;56754;51.568;5.048;2023-11-19T06:10:11;100821.00;;;12.46;75.79
69535;BME280;56754;51.568;5.048;2023-11-19T06:12:36;100816.44;;;12.47;76.06
69535;BME280;56754;51.568;5.048;2023-11-19T06:15:02;100815.66;;;12.46;75.88
69535;BME280;56754;51.568;5.048;2023-11-19T06:17:27;100807.59;;;12.46;75.99
69535;BME280;56754;51.568;5.048;2023-11-19T06:19:53;100809.50;;;12.46;76.15
69535;BME280;56754;51.568;5.048;2023-11-19T06:22:18;100803.38;;;12.45;76.24
69535;BME280;56754;51.568;5.048;2023-11-19T06:24:43;100818.63;;;12.45;75.93
69535;BME280;56754;51.568;5.048;2023-11-19T06:27:08;100807.91;;;12.45;76.05
69535;BME280;56754;51.568;5.048;2023-11-19T06:29:34;100813.28;;;12.45;75.98
69535;BME280;56754;51.568;5.048;2023-11-19T06:31:59;100820.53;;;12.44;76.17
69535;BME280;56754;51.568;5.048;2023-11-19T06:34:24;100817.84;;;12.44;75.82
69535;BME280;56754;51.568;5.048;2023-11-19T06:36:50;100823.22;;;12.44;76.22
69535;BME280;56754;51.568;5.048;2023-11-19T06:39:15;100818.63;;;12.45;76.32
69535;BME280;56754;51.568;5.048;2023-11-19T06:41:46;100817.84;;;12.44;76.16
69535;BME280;56754;51.568;5.048;2023-11-19T06:44:12;100827.81;;;12.44;76.02
69535;BME280;56754;51.568;5.048;2023-11-19T06:46:37;100827.03;;;12.43;75.91
69535;BME280;56754;51.568;5.048;2023-11-19T06:49:02;100831.59;;;12.43;75.91
69535;BME280;56754;51.568;5.048;2023-11-19T06:51:28;100818.50;;;12.41;75.98
69535;BME280;56754;51.568;5.048;2023-11-19T06:53:53;100836.19;;;12.42;76.11
69535;BME280;56754;51.568;5.048;2023-11-19T06:56:24;100842.63;;;12.41;76.00
69535;BME280;56754;51.568;5.048;2023-11-19T06:58:50;100860.31;;;12.42;76.07
69535;BME280;56754;51.568;5.048;2023-11-19T07:01:17;100857.94;;;12.41;75.55
69535;BME280;56754;51.568;5.048;2023-11-19T07:03:42;100865.19;;;12.40;75.44
69535;BME280;56754;51.568;5.048;2023-11-19T07:06:07;100856.38;;;12.40;75.44
69535;BME280;56754;51.568;5.048;2023-11-19T07:08:33;100868.66;;;12.41;75.57
69535;BME280;56754;51.568;5.048;2023-11-19T07:10:58;100880.50;;;12.40;75.42
69535;BME280;56754;51.568;5.048;2023-11-19T07:13:23;100882.69;;;12.38;75.17
69535;BME280;56754;51.568;5.048;2023-11-19T07:15:48;100871.63;;;12.39;75.17
69535;BME280;56754;51.568;5.048;2023-11-19T07:18:14;100886.63;;;12.40;75.75
69535;BME280;56754;51.568;5.048;2023-11-19T07:20:39;100871.63;;;12.39;75.48
69535;BME280;56754;51.568;5.048;2023-11-19T07:23:04;100874.31;;;12.39;75.66
69535;BME280;56754;51.568;5.048;2023-11-19T07:25:29;100881.28;;;12.40;76.04
69535;BME280;56754;51.568;5.048;2023-11-19T07:27:55;100871.63;;;12.39;75.88
69535;BME280;56754;51.568;5.048;2023-11-19T07:30:20;100882.06;;;12.41;75.78
69535;BME280;56754;51.568;5.048;2023-11-19T07:32:45;100875.91;;;12.40;75.92
69535;BME280;56754;51.568;5.048;2023-11-19T07:35:11;100874.78;;;12.41;76.05
69535;BME280;56754;51.568;5.048;2023-11-19T07:37:36;100883.94;;;12.40;75.67
69535;BME280;56754;51.568;5.048;2023-11-19T07:40:01;100888.19;;;12.41;75.11
69535;BME280;56754;51.568;5.048;2023-11-19T07:42:27;100883.63;;;12.42;75.79
69535;BME280;56754;51.568;5.048;2023-11-19T07:44:52;100870.22;;;12.42;75.64
69535;BME280;56754;51.568;5.048;2023-11-19T07:47:17;100864.06;;;12.41;75.49
69535;BME280;56754;51.568;5.048;2023-11-19T07:49:42;100877.16;;;12.43;75.21
69535;BME280;56754;51.568;5.048;2023-11-19T07:52:08;100884.09;;;12.44;75.71
69535;BME280;56754;51.568;5.048;2023-11-19T07:54:33;100887.56;;;12.44;75.35
69535;BME280;56754;51.568;5.048;2023-11-19T07:56:58;100883.78;;;12.45;75.42
69535;BME280;56754;51.568;5.048;2023-11-19T07:59:23;100896.06;;;12.46;75.32
69535;BME280;56754;51.568;5.048;2023-11-19T08:01:49;100901.44;;;12.46;75.62
69535;BME280;56754;51.568;5.048;2023-11-19T08:04:14;100883.59;;;12.50;75.60
69535;BME280;56754;51.568;5.048;2023-11-19T08:06:40;100883.28;;;12.52;75.25
69535;BME280;56754;51.568;5.048;2023-11-19T08:09:05;100889.13;;;12.54;75.39
69535;BME280;56754;51.568;5.048;2023-11-19T08:11:30;100889.91;;;12.55;75.03
69535;BME280;56754;51.568;5.048;2023-11-19T08:13:55;100886.09;;;12.56;74.70
69535;BME280;56754;51.568;5.048;2023-11-19T08:16:21;100893.84;;;12.57;74.97
69535;BME280;56754;51.568;5.048;2023-11-19T08:18:46;100895.06;;;12.60;74.75
69535;BME280;56754;51.568;5.048;2023-11-19T08:21:11;100884.34;;;12.60;74.73
69535;BME280;56754;51.568;5.048;2023-11-19T08:23:37;100891.31;;;12.61;74.78
69535;BME280;56754;51.568;5.048;2023-11-19T08:26:02;100891.31;;;12.61;74.37
69535;BME280;56754;51.568;5.048;2023-11-19T08:28:27;100885.59;;;12.62;74.42
69535;BME280;56754;51.568;5.048;2023-11-19T08:30:53;100884.50;;;12.63;74.58
69535;BME280;56754;51.568;5.048;2023-11-19T08:33:18;100877.69;;;12.66;74.25
69535;BME280;56754;51.568;5.048;2023-11-19T08:35:43;100884.66;;;12.67;74.38
69535;BME280;56754;51.568;5.048;2023-11-19T08:38:09;100893.97;;;12.69;74.17
69535;BME280;56754;51.568;5.048;2023-11-19T08:40:34;100894.41;;;12.71;73.96
69535;BME280;56754;51.568;5.048;2023-11-19T08:42:59;100893.75;;;12.74;73.85
69535;BME280;56754;51.568;5.048;2023-11-19T08:45:25;100894.72;;;12.79;73.84
69535;BME280;56754;51.568;5.048;2023-11-19T08:47:50;100901.00;;;12.83;73.90
69535;BME280;56754;51.568;5.048;2023-11-19T08:50:16;100900.34;;;12.86;73.75
69535;BME280;56754;51.568;5.048;2023-11-19T08:52:41;100899.69;;;12.89;73.69
69535;BME280;56754;51.568;5.048;2023-11-19T08:55:06;100910.56;;;12.92;73.69
69535;BME280;56754;51.568;5.048;2023-11-19T08:57:32;100911.03;;;12.94;73.47
69535;BME280;56754;51.568;5.048;2023-11-19T08:59:57;100908.81;;;12.96;73.52
69535;BME280;56754;51.568;5.048;2023-11-19T09:02:23;100901.25;;;12.98;73.40
69535;BME280;56754;51.568;5.048;2023-11-19T09:04:48;100905.16;;;13.01;73.32
69535;BME280;56754;51.568;5.048;2023-11-19T09:07:13;100904.84;;;13.03;73.29
69535;BME280;56754;51.568;5.048;2023-11-19T09:09:38;100893.34;;;13.02;73.27
69535;BME280;56754;51.568;5.048;2023-11-19T09:12:04;100896.16;;;13.06;73.19
69535;BME280;56754;51.568;5.048;2023-11-19T09:14:30;100895.38;;;13.05;73.08
69535;BME280;56754;51.568;5.048;2023-11-19T09:16:55;100886.19;;;13.06;73.41
69535;BME280;56754;51.568;5.048;2023-11-19T09:19:20;100875.47;;;13.06;73.04
69535;BME280;56754;51.568;5.048;2023-11-19T09:21:45;100880.84;;;13.06;73.27
69535;BME280;56754;51.568;5.048;2023-11-19T09:24:11;100874.34;;;13.07;73.29
69535;BME280;56754;51.568;5.048;2023-11-19T09:26:36;100885.56;;;13.09;73.30
69535;BME280;56754;51.568;5.048;2023-11-19T09:29:02;100889.03;;;13.10;73.35
69535;BME280;56754;51.568;5.048;2023-11-19T09:31:27;100882.88;;;13.09;73.28
69535;BME280;56754;51.568;5.048;2023-11-19T09:33:52;100897.06;;;13.10;73.32
69535;BME280;56754;51.568;5.048;2023-11-19T09:36:18;100886.34;;;13.10;73.25
69535;BME280;56754;51.568;5.048;2023-11-19T09:38:43;100875.59;;;13.10;73.48
69535;BME280;56754;51.568;5.048;2023-11-19T09:41:09;100881.78;;;13.10;73.39
69535;BME280;56754;51.568;5.048;2023-11-19T09:43:35;100887.94;;;13.11;73.48
69535;BME280;56754;51.568;5.048;2023-11-19T09:46:04;100879.88;;;13.11;73.42
69535;BME280;56754;51.568;5.048;2023-11-19T09:48:30;100881.78;;;13.10;73.28
69535;BME280;56754;51.568;5.048;2023-11-19T09:50:56;100880.97;;;13.10;73.17
69535;BME280;56754;51.568;5.048;2023-11-19T09:53:21;100880.66;;;13.11;73.36
69535;BME280;56754;51.568;5.048;2023-11-19T09:55:47;100889.19;;;13.13;73.50
69535;BME280;56754;51.568;5.048;2023-11-19T09:58:14;100886.94;;;13.15;73.42
69535;BME280;56754;51.568;5.048;2023-11-19T10:00:40;100885.84;;;13.16;73.33
69535;BME280;56754;51.568;5.048;2023-11-19T10:03:07;100878.56;;;13.17;73.22
69535;BME280;56754;51.568;5.048;2023-11-19T10:05:33;100892.44;;;13.19;73.30
69535;BME280;56754;51.568;5.048;2023-11-19T10:07:59;100887.53;;;13.21;73.43
69535;BME280;56754;51.568;5.048;2023-11-19T10:10:24;100883.72;;;13.22;73.30
69535;BME280;56754;51.568;5.048;2023-11-19T10:12:52;100871.13;;;13.23;73.19
69535;BME280;56754;51.568;5.048;2023-11-19T10:15:21;100878.06;;;13.24;73.16
69535;BME280;56754;51.568;5.048;2023-11-19T10:17:46;100877.78;;;13.25;73.22
69535;BME280;56754;51.568;5.048;2023-11-19T10:20:12;100884.69;;;13.26;73.10
69535;BME280;56754;51.568;5.048;2023-11-19T10:22:37;100880.91;;;13.27;72.96
69535;BME280;56754;51.568;5.048;2023-11-19T10:25:02;100880.91;;;13.27;72.83
69535;BME280;56754;51.568;5.048;2023-11-19T10:27:28;100870.94;;;13.28;72.85
69535;BME280;56754;51.568;5.048;2023-11-19T10:29:53;100875.22;;;13.29;72.77
69535;BME280;56754;51.568;5.048;2023-11-19T10:32:18;100873.31;;;13.29;72.69
69535;BME280;56754;51.568;5.048;2023-11-19T10:34:44;100877.56;;;13.30;72.85
69535;BME280;56754;51.568;5.048;2023-11-19T10:37:09;100877.25;;;13.32;72.88
69535;BME280;56754;51.568;5.048;2023-11-19T10:39:53;100884.97;;;13.33;72.70
69535;BME280;56754;51.568;5.048;2023-11-19T10:42:18;100883.88;;;13.34;72.84
69535;BME280;56754;51.568;5.048;2023-11-19T10:44:43;100880.38;;;13.34;72.68
69535;BME280;56754;51.568;5.048;2023-11-19T10:47:10;100881.97;;;13.35;72.73
69535;BME280;56754;51.568;5.048;2023-11-19T10:49:36;100872.78;;;13.36;72.59
69535;BME280;56754;51.568;5.048;2023-11-19T10:52:02;100875.16;;;13.37;72.69
69535;BME280;56754;51.568;5.048;2023-11-19T10:54:30;100865.97;;;13.38;72.63
69535;BME280;56754;51.568;5.048;2023-11-19T10:56:59;100871.34;;;13.38;72.36
69535;BME280;56754;51.568;5.048;2023-11-19T10:59:28;100869.13;;;13.40;72.44
69535;BME280;56754;51.568;5.048;2023-11-19T11:01:56;100861.88;;;13.41;72.64
69535;BME280;56754;51.568;5.048;2023-11-19T11:04:25;100873.84;;;13.43;72.50
69535;BME280;56754;51.568;5.048;2023-11-19T11:06:51;100869.28;;;13.44;72.52
69535;BME280;56754;51.568;5.048;2023-11-19T11:09:16;100862.00;;;13.45;72.26
69535;BME280;56754;51.568;5.048;2023-11-19T11:11:46;100883.47;;;13.45;72.17
69535;BME280;56754;51.568;5.048;2023-11-19T11:14:12;100882.34;;;13.46;72.33
69535;BME280;56754;51.568;5.048;2023-11-19T11:16:42;100880.47;;;13.46;72.50
69535;BME280;56754;51.568;5.048;2023-11-19T11:19:09;100881.69;;;13.49;72.48
69535;BME280;56754;51.568;5.048;2023-11-19T11:21:36;100864.97;;;13.52;72.69
69535;BME280;56754;51.568;5.048;2023-11-19T11:38:08;100846.88;;;13.61;73.75
69535;BME280;56754;51.568;5.048;2023-11-19T11:40:34;100848.44;;;13.62;73.44
69535;BME280;56754;51.568;5.048;2023-11-19T11:42:59;100832.31;;;13.62;73.69
69535;BME280;56754;51.568;5.048;2023-11-19T11:45:38;100843.53;;;13.64;73.64
69535;BME280;56754;51.568;5.048;2023-11-19T11:48:11;100840.50;;;13.65;73.57
69535;BME280;56754;51.568;5.048;2023-11-19T11:50:51;100832.91;;;13.68;73.43
69535;BME280;56754;51.568;5.048;2023-11-19T11:53:21;100829.09;;;13.69;73.41
69535;BME280;56754;51.568;5.048;2023-11-19T11:58:22;100823.06;;;13.72;73.36
69535;BME280;56754;51.568;5.048;2023-11-19T12:00:51;100831.59;;;13.74;72.93
69535;BME280;56754;51.568;5.048;2023-11-19T12:03:20;100820.50;;;13.75;73.00
69535;BME280;56754;51.568;5.048;2023-11-19T12:05:45;100828.56;;;13.75;73.07
69535;BME280;56754;51.568;5.048;2023-11-19T12:08:12;100830.94;;;13.77;72.93
69535;BME280;56754;51.568;5.048;2023-11-19T12:10:45;100824.56;;;13.81;72.85
69535;BME280;56754;51.568;5.048;2023-11-19T12:13:11;100814.25;;;13.83;72.99
69535;BME280;56754;51.568;5.048;2023-11-19T12:18:25;100810.25;;;13.89;72.91
69535;BME280;56754;51.568;5.048;2023-11-19T12:20:51;100807.25;;;13.91;72.94
69535;BME280;56754;51.568;5.048;2023-11-19T12:23:16;100810.03;;;13.95;72.79
69535;BME280;56754;51.568;5.048;2023-11-19T12:25:42;100826.63;;;13.97;72.93
69535;BME280;56754;51.568;5.048;2023-11-19T12:28:12;100825.84;;;13.96;72.58
69535;BME280;56754;51.568;5.048;2023-11-19T12:30:38;100834.69;;;13.97;72.41
69535;BME280;56754;51.568;5.048;2023-11-19T12:33:08;100828.19;;;13.98;72.29
69535;BME280;56754;51.568;5.048;2023-11-19T12:35:33;100831.34;;;14.00;72.32
69535;BME280;56754;51.568;5.048;2023-11-19T12:37:58;100822.16;;;14.01;72.43
69535;BME280;56754;51.568;5.048;2023-11-19T12:40:25;100819.47;;;14.01;71.98
69535;BME280;56754;51.568;5.048;2023-11-19T12:42:52;100827.53;;;14.01;72.05
69535;BME280;56754;51.568;5.048;2023-11-19T12:45:17;100830.69;;;14.03;72.03
69535;BME280;56754;51.568;5.048;2023-11-19T12:47:43;100816.78;;;14.01;72.13
69535;BME280;56754;51.568;5.048;2023-11-19T12:50:10;100819.00;;;13.99;72.26
69535;BME280;56754;51.568;5.048;2023-11-19T12:52:36;100816.31;;;13.99;73.56
69535;BME280;56754;51.568;5.048;2023-11-19T12:55:03;100823.59;;;13.98;72.55
69535;BME280;56754;51.568;5.048;2023-11-19T12:57:41;100824.72;;;13.97;72.85
69535;BME280;56754;51.568;5.048;2023-11-19T13:00:17;100826.63;;;13.97;73.67
69535;BME280;56754;51.568;5.048;2023-11-19T13:02:47;100835.00;;;13.95;73.71